createdAt,value
2022-07-29T00:03:02.164Z,16.17
2022-07-29T00:06:05.691Z,15.57
2022-07-29T00:09:10.046Z,13.73
2022-07-29T00:12:13.625Z,14.57
2022-07-29T00:15:17.946Z,16.00
2022-07-29T00:18:21.467Z,14.30
2022-07-29T00:21:25.358Z,15.23
2022-07-29T00:24:29.052Z,15.93
2022-07-29T00:27:32.555Z,16.33
2022-07-29T00:30:36.210Z,15.18
2022-07-29T00:33:40.237Z,15.40
2022-07-29T00:36:47.071Z,15.65
2022-07-29T00:39:51.048Z,14.75
2022-07-29T00:42:54.856Z,15.57
2022-07-29T00:46:00.546Z,14.00
2022-07-29T00:49:04.413Z,14.50
2022-07-29T00:52:09.564Z,14.63
2022-07-29T00:55:15.195Z,14.77
2022-07-29T00:58:19.193Z,13.70
2022-07-29T01:01:22.817Z,14.00
2022-07-29T01:04:27.148Z,13.82
2022-07-29T01:07:33.705Z,13.43
2022-07-29T01:10:40.369Z,14.23
2022-07-29T01:13:45.788Z,13.45
2022-07-29T01:17:10.275Z,13.73
2022-07-29T01:20:32.600Z,13.45
2022-07-29T01:23:50.820Z,13.20
2022-07-29T01:27:18.182Z,13.20
2022-07-29T01:30:26.772Z,13.77
2022-07-29T01:33:52.842Z,12.82
2022-07-29T01:37:15.195Z,12.10
2022-07-29T01:40:52.955Z,12.00
2022-07-29T01:44:04.955Z,12.23
2022-07-29T01:47:17.306Z,11.20
2022-07-29T01:50:25.603Z,10.32
2022-07-29T01:53:38.257Z,11.10
2022-07-29T01:56:44.457Z,11.25
2022-07-29T01:59:49.214Z,9.88
2022-07-29T02:02:55.248Z,10.02
2022-07-29T02:06:00.003Z,9.10
2022-07-29T02:09:05.519Z,9.80
2022-07-29T02:12:13.433Z,9.70
2022-07-29T02:15:19.087Z,9.10
2022-07-29T02:18:25.707Z,9.30
2022-07-29T02:21:32.803Z,9.00
2022-07-29T02:24:38.692Z,8.52
2022-07-29T02:27:44.670Z,8.23
2022-07-29T02:30:49.718Z,7.05
2022-07-29T02:33:55.861Z,7.78
2022-07-29T02:36:59.921Z,6.93
2022-07-29T02:40:04.762Z,6.60
2022-07-29T02:43:10.868Z,6.07
2022-07-29T02:46:29.079Z,6.00
2022-07-29T02:49:40.469Z,5.13
2022-07-29T02:52:49.706Z,5.32
2022-07-29T02:56:13.306Z,6.13
2022-07-29T02:59:22.375Z,4.55
2022-07-29T03:02:28.855Z,4.30
2022-07-29T03:05:37.025Z,4.30
2022-07-29T03:11:50.493Z,4.93
2022-07-29T03:14:55.909Z,3.35
2022-07-29T03:18:00.781Z,3.35
2022-07-29T03:21:05.299Z,3.63
2022-07-29T03:24:12.577Z,3.20
2022-07-29T03:27:16.284Z,2.90
2022-07-29T03:30:22.080Z,2.80
2022-07-29T03:33:25.479Z,2.83
2022-07-29T03:36:29.334Z,3.40
2022-07-29T03:39:37.170Z,3.00
2022-07-29T03:42:42.933Z,3.92
2022-07-29T03:45:49.817Z,2.97
2022-07-29T03:49:00.487Z,3.90
2022-07-29T03:52:04.357Z,3.40
2022-07-29T03:55:09.769Z,3.67
2022-07-29T03:58:15.139Z,3.40
2022-07-29T04:01:20.575Z,4.15
2022-07-29T04:04:24.274Z,4.32
2022-07-29T04:10:35.729Z,4.20
2022-07-29T04:13:39.853Z,4.60
2022-07-29T04:16:43.056Z,4.28
2022-07-29T04:19:46.949Z,4.00
2022-07-29T04:22:50.557Z,4.47
2022-07-29T04:25:54.520Z,3.47
2022-07-29T04:28:57.739Z,3.40
2022-07-29T04:32:01.619Z,4.10
2022-07-29T04:35:05.486Z,4.88
2022-07-29T04:38:15.937Z,5.07
2022-07-29T04:41:20.922Z,4.88
2022-07-29T04:44:28.669Z,4.88
2022-07-29T04:47:32.766Z,4.65
2022-07-29T04:50:36.386Z,4.43
2022-07-29T04:53:40.232Z,4.57
2022-07-29T04:56:44.352Z,4.18
2022-07-29T04:59:47.867Z,4.10
2022-07-29T05:02:52.156Z,3.95
2022-07-29T05:09:01.740Z,2.70
2022-07-29T05:12:05.140Z,3.33
2022-07-29T05:15:09.672Z,3.20
2022-07-29T05:18:12.966Z,3.17
2022-07-29T05:21:16.952Z,3.08
2022-07-29T05:24:20.716Z,3.22
2022-07-29T05:27:24.605Z,3.10
2022-07-29T05:30:28.193Z,3.30
2022-07-29T05:33:36.105Z,3.72
2022-07-29T05:36:40.305Z,2.80
2022-07-29T05:39:49.016Z,3.30
2022-07-29T05:42:53.995Z,3.05
2022-07-29T05:45:58.762Z,3.20
2022-07-29T05:49:04.231Z,3.03
2022-07-29T05:52:08.246Z,2.78
2022-07-29T05:55:12.181Z,2.83
2022-07-29T05:58:17.378Z,2.80
2022-07-29T06:01:21.764Z,2.60
2022-07-29T06:04:25.842Z,2.95
2022-07-29T06:07:29.499Z,2.05
2022-07-29T06:10:37.917Z,2.63
2022-07-29T06:13:41.611Z,2.60
2022-07-29T06:16:45.276Z,2.90
2022-07-29T06:19:49.187Z,2.35
2022-07-29T06:22:52.765Z,2.40
2022-07-29T06:25:56.388Z,2.42
2022-07-29T06:29:00.165Z,2.63
2022-07-29T06:32:04.592Z,2.47
2022-07-29T06:35:37.614Z,2.70
2022-07-29T06:38:34.376Z,2.20
2022-07-29T06:41:43.990Z,2.40
2022-07-29T06:44:49.879Z,2.33
2022-07-29T06:47:54.440Z,2.13
2022-07-29T06:50:58.429Z,2.30
2022-07-29T06:54:03.311Z,2.03
2022-07-29T06:57:07.667Z,2.50
2022-07-29T07:00:11.879Z,2.60
2022-07-29T07:03:17.093Z,2.35
2022-07-29T07:06:20.549Z,2.50
2022-07-29T07:09:24.647Z,1.98
2022-07-29T07:12:43.875Z,2.50
2022-07-29T07:15:50.267Z,2.28
2022-07-29T07:18:53.750Z,1.90
2022-07-29T07:21:58.198Z,2.10
2022-07-29T07:25:01.795Z,1.90
2022-07-29T07:28:05.517Z,1.88
2022-07-29T07:31:09.123Z,2.03
2022-07-29T07:34:13.637Z,2.58
2022-07-29T07:37:18.677Z,1.70
2022-07-29T07:40:22.874Z,2.00
2022-07-29T07:43:26.592Z,1.98
2022-07-29T07:46:30.434Z,1.90
2022-07-29T07:49:34.024Z,1.83
2022-07-29T07:52:51.749Z,1.70
2022-07-29T07:56:12.075Z,1.88
2022-07-29T07:59:16.228Z,1.77
2022-07-29T08:02:20.266Z,1.88
2022-07-29T08:05:24.464Z,1.80
2022-07-29T08:08:28.012Z,1.70
2022-07-29T08:11:31.719Z,1.75
2022-07-29T08:14:39.319Z,1.40
2022-07-29T08:17:43.457Z,1.80
2022-07-29T08:20:46.810Z,2.00
2022-07-29T08:23:58.677Z,1.50
2022-07-29T08:27:09.825Z,1.50
2022-07-29T08:30:25.452Z,1.40
2022-07-29T08:33:28.712Z,1.73
2022-07-29T08:36:34.147Z,1.45
2022-07-29T08:39:37.348Z,1.58
2022-07-29T08:42:41.379Z,1.33
2022-07-29T08:45:49.996Z,1.33
2022-07-29T08:48:54.287Z,1.50
2022-07-29T08:52:00.391Z,1.33
2022-07-29T08:55:05.184Z,1.55
2022-07-29T08:58:09.238Z,1.52
2022-07-29T09:01:23.863Z,1.50
2022-07-29T09:04:41.320Z,1.45
2022-07-29T09:07:49.178Z,1.35
2022-07-29T09:10:53.354Z,1.63
2022-07-29T09:13:57.444Z,1.38
2022-07-29T09:17:01.695Z,1.53
2022-07-29T09:20:20.591Z,1.42
2022-07-29T09:23:27.146Z,1.70
2022-07-29T09:26:33.044Z,1.50
2022-07-29T09:29:38.538Z,2.78
2022-07-29T09:33:03.243Z,1.60
2022-07-29T09:36:11.091Z,1.35
2022-07-29T09:39:17.829Z,1.60
2022-07-29T09:42:31.328Z,1.20
2022-07-29T09:45:36.158Z,1.50
2022-07-29T09:48:39.906Z,1.30
2022-07-29T09:51:44.026Z,1.20
2022-07-29T09:54:47.834Z,1.40
2022-07-29T09:57:51.403Z,1.30
2022-07-29T10:00:56.906Z,2.03
2022-07-29T10:04:00.875Z,1.60
2022-07-29T10:07:06.583Z,1.40
2022-07-29T10:10:10.627Z,1.60
2022-07-29T10:13:16.562Z,1.50
2022-07-29T10:16:20.756Z,1.17
2022-07-29T10:19:25.300Z,1.30
2022-07-29T10:22:51.775Z,1.50
2022-07-29T10:25:53.005Z,1.10
2022-07-29T10:28:57.439Z,1.60
2022-07-29T10:32:27.902Z,1.45
2022-07-29T10:35:45.633Z,1.60
2022-07-29T10:38:49.903Z,1.33
2022-07-29T10:42:16.987Z,1.40
2022-07-29T10:45:24.552Z,1.58
2022-07-29T10:52:01.065Z,1.30
2022-07-29T10:55:06.371Z,1.80
2022-07-29T10:58:27.327Z,2.60
2022-07-29T11:01:37.178Z,1.50
2022-07-29T11:04:56.862Z,1.60
2022-07-29T11:08:19.918Z,1.40
2022-07-29T11:11:29.665Z,1.50
2022-07-29T11:15:20.423Z,1.60
2022-07-29T11:18:25.584Z,1.75
2022-07-29T11:22:05.177Z,1.50
2022-07-29T11:25:50.354Z,5.35
2022-07-29T11:28:53.759Z,1.70
2022-07-29T11:32:10.682Z,2.65
2022-07-29T11:35:37.383Z,1.98
2022-07-29T11:38:43.017Z,1.45
2022-07-29T11:41:46.551Z,1.40
2022-07-29T11:44:57.730Z,1.40
2022-07-29T11:48:29.058Z,1.70
2022-07-29T11:51:32.721Z,1.30
2022-07-29T11:58:04.586Z,1.80
2022-07-29T12:01:08.739Z,1.63
2022-07-29T12:04:12.324Z,1.40
2022-07-29T12:07:03.711Z,1.52
2022-07-29T12:07:18.243Z,1.40
2022-07-29T12:10:30.054Z,1.50
2022-07-29T12:13:41.735Z,1.48
2022-07-29T12:16:45.438Z,1.48
2022-07-29T12:19:50.988Z,3.05
2022-07-29T12:22:56.028Z,1.52
2022-07-29T12:26:01.287Z,1.58
2022-07-29T12:29:14.787Z,1.88
2022-07-29T12:32:24.410Z,1.88
2022-07-29T12:35:28.748Z,1.90
2022-07-29T12:38:36.388Z,1.98
2022-07-29T12:41:40.664Z,2.10
2022-07-29T12:44:49.306Z,1.98
2022-07-29T12:47:53.916Z,2.67
2022-07-29T12:51:00.358Z,2.08
2022-07-29T12:54:17.701Z,2.75
2022-07-29T12:57:21.965Z,6.10
2022-07-29T13:00:26.194Z,3.42
2022-07-29T13:03:35.757Z,2.40
2022-07-29T13:06:46.139Z,2.47
2022-07-29T13:09:53.756Z,5.78
2022-07-29T13:13:15.159Z,2.20
2022-07-29T13:16:19.222Z,2.30
2022-07-29T13:19:42.021Z,2.10
2022-07-29T13:22:50.556Z,2.10
2022-07-29T13:25:54.593Z,2.80
2022-07-29T13:28:58.579Z,3.00
2022-07-29T13:32:02.891Z,2.53
2022-07-29T13:35:08.771Z,2.60
2022-07-29T13:38:12.917Z,2.72
2022-07-29T13:41:16.550Z,4.25
2022-07-29T13:44:21.630Z,4.35
2022-07-29T13:47:32.322Z,4.18
2022-07-29T13:50:37.112Z,2.85
2022-07-29T13:53:40.655Z,3.50
2022-07-29T13:56:44.560Z,4.47
2022-07-29T13:59:53.965Z,6.00
2022-07-29T14:02:58.606Z,5.45
2022-07-29T14:06:02.299Z,6.35
2022-07-29T14:09:13.137Z,4.50
2022-07-29T14:12:16.794Z,5.22
2022-07-29T14:15:22.885Z,3.67
2022-07-29T14:18:26.369Z,6.03
2022-07-29T14:21:30.162Z,4.30
2022-07-29T14:24:36.970Z,7.83
2022-07-29T14:27:41.248Z,5.95
2022-07-29T14:30:45.718Z,6.70
2022-07-29T14:33:49.512Z,5.82
2022-07-29T14:36:53.175Z,8.35
2022-07-29T14:40:01.208Z,6.95
2022-07-29T14:43:05.684Z,7.75
2022-07-29T14:46:09.870Z,7.90
2022-07-29T14:49:13.531Z,7.90
2022-07-29T14:52:17.596Z,7.75
2022-07-29T14:55:21.464Z,6.93
2022-07-29T14:58:25.724Z,6.88
2022-07-29T15:01:29.443Z,8.10
2022-07-29T15:04:36.518Z,7.97
2022-07-29T15:10:43.801Z,9.30
2022-07-29T15:13:47.526Z,8.65
2022-07-29T15:16:52.899Z,8.80
2022-07-29T15:19:56.500Z,8.68
2022-07-29T15:23:00.472Z,8.95
2022-07-29T15:26:04.576Z,8.75
2022-07-29T15:29:08.155Z,14.65
2022-07-29T15:32:13.005Z,11.30
2022-07-29T15:35:16.280Z,10.23
2022-07-29T15:38:20.240Z,9.50
2022-07-29T15:41:32.648Z,11.02
2022-07-29T15:44:37.043Z,10.70
2022-07-29T15:47:40.206Z,10.82
2022-07-29T15:50:46.940Z,10.43
2022-07-29T15:53:53.614Z,10.00
2022-07-29T15:56:57.916Z,12.10
2022-07-29T16:00:01.865Z,10.90
2022-07-29T16:03:11.073Z,12.65
2022-07-29T16:06:15.226Z,9.98
2022-07-29T16:09:19.573Z,10.40
2022-07-29T16:12:23.044Z,10.05
2022-07-29T16:15:27.107Z,10.95
2022-07-29T16:18:31.495Z,9.85
2022-07-29T16:21:36.248Z,9.48
2022-07-29T16:24:40.248Z,11.15
2022-07-29T16:27:43.974Z,10.18
2022-07-29T16:30:47.493Z,9.43
2022-07-29T16:33:54.902Z,8.43
2022-07-29T16:36:59.745Z,9.13
2022-07-29T16:40:05.148Z,10.95
2022-07-29T16:43:09.364Z,9.70
2022-07-29T16:46:14.681Z,9.52
2022-07-29T16:49:22.760Z,10.35
2022-07-29T16:52:26.658Z,9.00
2022-07-29T16:55:30.265Z,9.48
2022-07-29T16:58:34.300Z,10.13
2022-07-29T17:01:37.675Z,10.20
2022-07-29T17:04:41.773Z,10.02
2022-07-29T17:07:45.546Z,8.80
2022-07-29T17:10:49.657Z,10.07
2022-07-29T17:13:52.898Z,10.10
2022-07-29T17:17:01.992Z,9.60
2022-07-29T17:20:07.840Z,14.13
2022-07-29T17:23:11.475Z,9.68
2022-07-29T17:26:15.816Z,10.40
2022-07-29T17:29:19.170Z,9.80
2022-07-29T17:32:23.059Z,10.43
2022-07-29T17:35:45.211Z,9.32
2022-07-29T17:38:49.669Z,8.75
2022-07-29T17:41:53.314Z,9.52
2022-07-29T17:44:57.200Z,8.88
2022-07-29T17:48:00.986Z,8.30
2022-07-29T17:51:05.311Z,7.93
2022-07-29T17:54:08.968Z,9.27
2022-07-29T17:57:13.263Z,9.63
2022-07-29T18:00:17.001Z,8.52
2022-07-29T18:03:21.403Z,9.43
2022-07-29T18:06:25.172Z,9.02
2022-07-29T18:09:29.547Z,10.00
2022-07-29T18:12:33.399Z,9.45
2022-07-29T18:15:37.534Z,9.63
2022-07-29T18:18:41.359Z,9.18
2022-07-29T18:21:51.172Z,8.60
2022-07-29T18:24:59.188Z,8.93
2022-07-29T18:28:03.429Z,8.55
2022-07-29T18:31:07.273Z,8.20
2022-07-29T18:34:11.177Z,8.18
2022-07-29T18:37:15.017Z,8.18
2022-07-29T18:40:20.658Z,7.78
2022-07-29T18:43:24.423Z,7.35
2022-07-29T18:46:28.578Z,7.03
2022-07-29T18:49:32.530Z,8.30
2022-07-29T18:52:36.717Z,6.32
2022-07-29T18:55:40.190Z,7.03
2022-07-29T18:58:44.440Z,7.20
2022-07-29T19:01:49.341Z,6.95
2022-07-29T19:04:53.276Z,9.05
2022-07-29T19:07:57.033Z,8.32
2022-07-29T19:11:01.182Z,8.52
2022-07-29T19:14:05.999Z,8.68
2022-07-29T19:17:10.085Z,8.00
2022-07-29T19:20:15.105Z,8.35
2022-07-29T19:23:19.380Z,8.00
2022-07-29T19:26:22.943Z,7.80
2022-07-29T19:32:33.583Z,7.47
2022-07-29T19:35:37.213Z,7.63
2022-07-29T19:38:41.398Z,7.22
2022-07-29T19:41:44.991Z,7.30
2022-07-29T19:44:48.920Z,7.00
2022-07-29T19:47:54.738Z,6.93
2022-07-29T19:51:01.684Z,7.05
2022-07-29T19:54:06.853Z,7.15
2022-07-29T19:57:11.004Z,6.72
2022-07-29T20:00:15.326Z,6.82
2022-07-29T20:03:19.707Z,7.50
2022-07-29T20:06:23.603Z,7.35
2022-07-29T20:09:29.027Z,7.20
2022-07-29T20:12:33.234Z,6.32
2022-07-29T20:15:37.310Z,6.88
2022-07-29T20:18:40.903Z,7.55
2022-07-29T20:21:44.942Z,7.80
2022-07-29T20:24:48.509Z,7.70
2022-07-29T20:27:53.400Z,7.90
2022-07-29T20:30:57.032Z,7.57
2022-07-29T20:34:01.451Z,7.57
2022-07-29T20:37:05.124Z,7.63
2022-07-29T20:40:12.452Z,7.18
2022-07-29T20:46:20.135Z,7.57
2022-07-29T20:49:23.880Z,9.40
2022-07-29T20:52:27.768Z,8.20
2022-07-29T20:55:32.530Z,7.47
2022-07-29T20:58:37.172Z,7.47
2022-07-29T21:01:40.525Z,7.63
2022-07-29T21:04:44.623Z,7.75
2022-07-29T21:07:47.732Z,7.97
2022-07-29T21:10:52.072Z,8.50
2022-07-29T21:13:55.260Z,8.20
2022-07-29T21:16:59.163Z,7.30
2022-07-29T21:20:05.015Z,7.63
2022-07-29T21:23:09.215Z,7.63
2022-07-29T21:26:13.273Z,7.30
2022-07-29T21:29:17.155Z,6.55
2022-07-29T21:32:27.356Z,6.90
2022-07-29T21:36:01.996Z,7.25
2022-07-29T21:38:57.591Z,6.93
2022-07-29T21:42:01.201Z,6.72
2022-07-29T21:45:06.056Z,6.72
2022-07-29T21:48:10.321Z,33.75
2022-07-29T21:51:13.752Z,7.95
2022-07-29T21:54:17.798Z,8.60
2022-07-29T21:57:21.426Z,8.10
2022-07-29T22:00:29.694Z,8.55
2022-07-29T22:03:33.245Z,7.90
2022-07-29T22:06:37.386Z,7.72
2022-07-29T22:09:40.893Z,8.75
2022-07-29T22:12:44.956Z,8.15
2022-07-29T22:15:48.109Z,8.55
2022-07-29T22:18:52.189Z,9.07
2022-07-29T22:21:55.503Z,7.80
2022-07-29T22:24:59.874Z,8.80
2022-07-29T22:28:03.538Z,8.48
2022-07-29T22:31:07.925Z,8.07
2022-07-29T22:34:13.934Z,9.20
2022-07-29T22:37:18.227Z,8.68
2022-07-29T22:40:22.577Z,9.55
2022-07-29T22:43:33.527Z,9.65
2022-07-29T22:46:37.052Z,9.00
2022-07-29T22:49:40.604Z,7.88
2022-07-29T22:52:44.373Z,6.88
2022-07-29T22:55:47.851Z,6.70
2022-07-29T22:58:51.498Z,7.45
2022-07-29T23:01:55.519Z,7.40
2022-07-29T23:04:59.172Z,7.07
2022-07-29T23:08:03.198Z,7.35
2022-07-29T23:11:06.771Z,6.72
2022-07-29T23:14:10.886Z,7.13
2022-07-29T23:17:14.477Z,6.70
2022-07-29T23:20:18.733Z,7.82
2022-07-29T23:23:22.091Z,6.72
2022-07-29T23:26:26.175Z,7.00
2022-07-29T23:29:32.736Z,6.45
2022-07-29T23:32:38.708Z,7.38
2022-07-29T23:35:42.336Z,6.80
2022-07-29T23:38:47.546Z,6.38
2022-07-29T23:41:51.922Z,6.63
2022-07-29T23:44:55.976Z,6.93
2022-07-29T23:47:59.587Z,6.50
2022-07-29T23:51:03.208Z,6.75
2022-07-29T23:54:06.903Z,6.70
2022-07-29T23:57:10.826Z,6.43
